DoloresCorre1

El pasado fin de semana se llevó a cabo esta competencia en el recorrido comprendido entre la Escuela n° 14, Escuela de Fruticultura, calle Balvis y Pizzagalli de nuestra ciudad.

La carrera comenzó pasadas las 10:30 desde la Escuela n° 14, en las distintas categorías Hasta 19 Años, 20-29, 30-34, 35-39,40-44, 45-49, 50-54, 55-59, 60-64 y 65 en adelante.

Se corrió en dos distancias, Pedestrismo 4 K / 8.5 K.

 

Resultados:

 

Pos. Gral. Apellido Nombre Sexo    Rango Tiempo Pos. Categoría
1 Gonzalo Rodriguez M M_Cat30-34 0:27:43 1
2 Lucas Molina M M_Cat30-34 0:28:16 2
3 Maximiliano Uterga M M_Cat35-39 0:28:32 1
4 Esequiel Temperan M M_Cat20-29 0:29:15 1
5 Matías Temperan M M_Cat20-29 0:29:45 2
6 Juan José Balinotti M M_Cat20-29 0:30:06 3
7 Cristian Guarracino M M_Cat35-39 0:30:24 2
8 Gustavo Temperan M M_Cat50-54 0:30:26 1
9 Mauricio Rios M M_Cat45-49 0:30:45 1
10 Martín Pirali M M_Cat35-39 0:31:15 3
11 Damián Zarates M M_Cat20-29 0:31:49 4
12 Claudio Portillo M M_Cat20-29 0:32:02 5
13 Maximiliano Dellasavina M M_Cat40-44 0:32:17 1
14 Diego Farias M M_Cat35-39 0:32:17 4
15 Marcos Raimundo M M_Cat20-29 0:32:20 6
16 Matias Acevedo M M_Cat30-34 0:32:44 3
17 Daniel Meckievi M M_Cat20-29 0:32:53 7
18 Nadia Rodriguez F F_Cat35-39 0:33:00 1
19 Jorge Lafuente M M_Cat55-59 0:33:08 1
20 Braian Kurtz M M_Cat0 19 0:33:11 1
21 Archivaldo Sives M M_Cat45-49 0:33:21 2
22 Fabian Libretti M M_Cat50-54 0:33:29 2
23 Andres Barragan M M_Cat0 19 0:33:46 2
24 Osvaldo Farías M M_Cat55-59 0:33:58 2
25 Cristian Viera M M_Cat20-29 0:34:15 8
26 Nestor Barragan M M_Cat40-44 0:34:19 2
27 Gustavo Charino M M_Cat45-49 0:34:22 3
28 Adrián Diubertti M M_Cat45-49 0:34:27 4
29 Jael Barreto F F_Cat40-44 0:34:30 1
30 Marcelo Zeniquel M M_Cat35-39 0:34:47 5
31 Shalom Lescano F F_Cat0 19 0:34:59 1
32 Javier Carter M M_Cat30-34 0:35:04 4
33 Juan Marín Salete M M_Cat20-29 0:35:09 9
34 Horacio Romero M M_Cat20-29 0:35:18 10
35 Julian Ponce M M_Cat20-29 0:35:31 11
36 Emiliano Fernandez M M_Cat30-34 0:35:44 5
37 Norma Suárez F F_Cat55-59 0:35:52 1
38 Rosana Martinez F F_Cat40-44 0:35:56 2
39 Ivo Sallaz M M_Cat20-29 0:36:04 12
40 Agustín Irigoyen M M_Cat40-44 0:36:11 3
41 Mariano Barraza M M_Cat30-34 0:36:23 6
42 Madelein Bordon F F_Cat20-29 0:36:25 1
43 Miguel Ángel Cases M M_Cat60-64 0:36:28 1
44 Sergio Valero M M_Cat30-34 0:36:37 7
45 Hipólito Pierguidi M M_Cat40-44 0:36:47 4
46 Daniel Sosa M M_Cat55-59 0:36:54 3
47 Gustavo Oliva M M_Cat20-29 0:37:09 13
48 Carlos Ortiz M M_Cat45-49 0:37:11 5
49 Daniel Avalos M M_Cat55-59 0:37:18 4
50 Yamil Martinez M M_Cat20-29 0:37:25 14
51 Gustavo Castagnino M M_Cat50-54 0:37:34 3
52 Alan Blanco M M_Cat20-29 0:37:44 15
53 Jorge Escobar M M_Cat50-54 0:37:51 4
54 Rocío Navarro F F_Cat35-39 0:37:54 2
55 Miguel Angel Rojas M M_Cat45-49 0:38:00 6
56 Benjamin Contreras M M_Cat45-49 0:38:11 7
57 Melisa Cuevas F F_Cat30-34 0:38:22 1
58 Oscar Martinez Díaz M M_Cat45-49 0:38:27 8
60 Mariel Arce F F_Cat20-29 0:38:42 2
59 Mercedes Buratti F F_Cat30-34 0:38:42 2
61 Rolando Álvarez M M_Cat45-49 0:39:14 9
62 Elisabeth Pereyra F F_Cat45-49 0:39:25 1
63 Martín Laxalde M M_Cat45-49 0:39:31 10
64 Eduardo Manuel Baña M M_Cat30-34 0:39:50 8
65 Raquel Beitia F F_Cat55-59 0:39:53 2
66 Daniel Nogueria M M_Cat50-54 0:39:59 5
67 Alejandro Esposito M M_Cat35-39 0:40:00 6
68 Nestor Zarates M M_Cat60-64 0:40:18 2
69 Maria Celeste Irala F F_Cat30-34 0:40:53 3
70 Geremias Gari M M_Cat40-44 0:40:55 5
71 Nestor Rios M M_Cat40-44 0:40:58 6
72 Mauricio Nievas M M_Cat40-44 0:41:00 7
73 Claudia Lorena Isasa F F_Cat45-49 0:41:04 2
74 Leonardo Montenegro M M_Cat35-39 0:41:04 7
75 David Lazarte M M_Cat40-44 0:41:07 8
76 Ricardo Lopez M M_Cat45-49 0:41:17 11
77 Cristian Zamora M M_Cat40-44 0:41:18 9
78 Yasmin Zamora F F_Cat30-34 0:41:19 4
79 Pedro Gatti M M_Catmas65 0:41:20 1
80 Hugo Schaffner M M_Cat50-54 0:41:26 6
81 Lisandro Javier Manrresa M M_Cat45-49 0:41:42 12
82 Patricia Godoy F F_Cat35-39 0:41:49 3
83 Omar Baigorria M M_Cat60-64 0:42:11 3
84 Carlos Damian Verbeke M M_Cat20-29 0:42:17 16
85 Julian Moran M M_Cat40-44 0:42:26 10
86 Silvia Ruiz F F_Cat50-54 0:42:28 1
87 Sebastían Barbato M M_Cat30-34 0:42:31 9
88 Alejandra Bertucci F F_Cat40-44 0:42:51 3
89 Noemí Yakonsic F F_Cat50-54 0:43:03 2
90 Melina Suárez F F_Cat40-44 0:43:26 4
91 Marcelo Calabrese M M_Cat40-44 0:43:26 11
92 Jorge Aranciaga M M_Cat35-39 0:43:40 8
93 Camila Montenegro F F_Cat20-29 0:43:42 3
94 Karina Donadio F F_Cat45-49 0:43:48 3
95 Maria Victoria Galvan F F_Cat45-49 0:43:58 4
96 Cristían Schweikofski M M_Cat30-34 0:44:26 10
97 Eduardo Talbot M M_Cat45-49 0:44:37 13
98 Romina Madril F F_Cat35-39 0:44:56 4
99 Jorge Benavente M M_Cat50-54 0:45:07 7
100 Jose Luis Panciroli M M_Cat50-54 0:45:20 8
101 Alejandra Noemi Llorens F F_Cat50-54 0:45:21 3
102 Zunilda Maciel F F_Cat40-44 0:45:45 5
103 Sandra Acuña F F_Cat50-54 0:45:46 4
104 Zulma Guiñazu F F_Cat55-59 0:46:14 3
105 Ramiro Outon M M_Cat30-34 0:46:18 11
106 Fernando Leiva M M_Cat35-39 0:46:19 9
107 Marisa Quinteros F F_Cat40-44 0:46:55 6
108 Viviana Eizmendi F F_Cat45-49 0:47:10 5
109 Marta Juanto F F_Cat45-49 0:47:23 6
111 Maria Daniela Tortorelli F F_Cat30-34 0:47:33 5
110 Pablo Alberto Soria M M_Cat35-39 0:47:33 10
112 Carlos Llona M M_Cat55-59 0:47:38 5
113 María De Los Ángeles Lapietra F F_Cat50-54 0:47:39 5
114 Leandro Balducci M M_Cat35-39 0:47:49 11
115 Stella Maris Íñiguez F F_Cat35-39 0:48:05 5
116 Mario Oscaris M M_Cat60-64 0:48:19 4
117 Catalina Dondo F F_Cat55-59 0:48:46 4
118 Gloria Fortetti F F_Cat60-64 0:48:51 1
119 Victoria Morosan F F_Cat35-39 0:49:08 6
120 María Zambrano F F_Cat45-49 0:50:11 7
121 Matías Goycochea M M_Cat35-39 0:50:43 12
122 Jorge Asi M M_Cat45-49 0:50:43 14
123 Marcelo Ándres Castillo M M_Cat50-54 0:51:32 9
124 Diego Bergamasco M M_Cat50-54 0:51:58 10
125 Rocío Nievas F F_Cat20-29 0:52:11 4
126 Diego Pate M M_Cat35-39 0:52:21 13
127 Adela Zarates F F_Cat30-34 0:52:21 6
128 Daniela Loza F F_Cat45-49 0:52:35 8
129 Silvia Liliana Kurtz F F_Cat45-49 0:53:41 9
130 Sharon Valladares F F_Cat20-29 0:53:51 5
131 Zulema Flores F F_Cat60-64 0:53:54 2
132 Ramona Lugo F F_Cat50-54 0:55:15 6
133 Julieta Peirano F F_Cat40-44 0:56:06 7
134 Miguel Esquivel M M_Catmas65 1:00:46 2
135 Carmen Gunce F F_Cat55-59 1:01:10 5

 

 

Dorsal Apellido Nombre Sexo    Rango Grupo T. Bruto T. Neto Promedio Velocidad Pos. General Pos. Categoria Pos. Sexo
219 Martin Pintos M M 0 24 General 0:16:40 0:16:40 00:04:10  Min/Km 14.4 1 1 1
201 M.Antonio Moreno M M 0 24 General 0:16:49 0:16:49 00:04:12  Min/Km 14.27 2 2 2
216 Ronaldo Huante M M 0 24 General 0:17:09 0:17:09 00:04:17  Min/Km 13.99 3 3 3
217 Nahuel Sosa M M 0 24 General 0:17:19 0:17:19 00:04:20  Min/Km 13.86 4 4 4
214 Diego Godoy M M 0 24 General 0:17:47 0:17:47 00:04:27  Min/Km 13.5 5 5 5
181 Debora Lescano F F 25-39 General 0:17:48 0:17:48 00:04:27  Min/Km 13.48 6 1 1
185 Alan Baron M M 0 24 General 0:17:53 0:17:53 00:04:28  Min/Km 13.42 7 6 6
193 Vìctor Ferreyra M M 25-39 General 0:17:53 0:17:53 00:04:28  Min/Km 13.42 8 1 6
184 Brandon Medina M M 0 24 General 0:19:11 0:19:11 00:04:48  Min/Km 12.51 9 7 8
186 Ian Baron M M 0 24 General 0:19:25 0:19:25 00:04:51  Min/Km 12.36 10 8 9
218 Augusto Sosa M M 0 24 General 0:19:39 0:19:39 00:04:55  Min/Km 12.21 11 9 10
206 Alejandra Pirali F F 25-39 General 0:19:45 0:19:45 00:04:56  Min/Km 12.15 12 2 2
212 Valentín César M M 0 24 General 0:19:55 0:19:55 00:04:59  Min/Km 12.05 13 10 11
215 Cristian Ortega M M 0 24 General 0:20:35 0:20:35 00:05:09  Min/Km 11.66 14 11 12
221 Jose Sosa M M 0 24 General 0:20:36 0:20:36 00:05:09  Min/Km 11.65 15 12 13
198 Facundo Pietruccelli M M 0 24 General 0:20:59 0:20:59 00:05:15  Min/Km 11.44 16 13 14
189 Leandro Disanso M M 25-39 General 0:21:03 0:21:03 00:05:16  Min/Km 11.4 17 2 15
197 Gustavo Rodriguez M M Mas 40 General 0:21:25 0:21:25 00:05:21  Min/Km 11.21 18 1 16
200 Anibal Machado M M Mas 40 General 0:22:01 0:22:01 00:05:30  Min/Km 10.9 19 2 17
211 Ferminan Massara M M 0 24 General 0:22:18 0:22:18 00:05:35  Min/Km 10.76 20 14 18
190 Isaac Martinez M M 25-39 General 0:23:15 0:23:15 00:05:49  Min/Km 10.32 21 3 19
187 Mónica B. Gómez F F Mas 40 General 0:23:30 0:23:30 00:05:53  Min/Km 10.21 22 1 3
209 Lautaro Banera M M 0 24 General 0:23:37 0:23:37 00:05:54  Min/Km 10.16 23 15 20
182 Nara Pio F F 0 24 General 0:23:44 0:23:44 00:05:56  Min/Km 10.11 24 1 4
195 Facundo Manzo M M 25-39 General 0:23:53 0:23:53 00:05:58  Min/Km 10.05 25 4 21
194 Roberto Kaisler M M 25-39 General 0:23:59 0:23:59 00:06:00  Min/Km 10.01 26 5 22
196 Cinthia Álvarez F F 25-39 General 0:24:33 0:24:33 00:06:08  Min/Km 9.78 27 3 5
207 Sandra Medina F F Mas 40 General 0:24:44 0:24:44 00:06:11  Min/Km 9.7 28 2 6
199 Cristina Pezulli F F Mas 40 General 0:25:51 0:25:51 00:06:28  Min/Km 9.28 29 3 7
220 Franco Obenat M M 0 24 General 0:25:51 0:25:51 00:06:28  Min/Km 9.28 30 16 23
222 Ezequiel Saavedra M M 0 24 General 0:25:54 0:25:54 00:06:29  Min/Km 9.27 31 17 24
208 Jorge Manzo M M Mas 40 General 0:28:10 0:28:10 00:07:03  Min/Km 8.52 32 3 25
205 Gustavo Bele M M 25-39 General 0:28:11 0:28:11 00:07:03  Min/Km 8.52 34 6 26
204 Ariana Alonso F F 25-39 General 0:28:11 0:28:11 00:07:03  Min/Km 8.52 33 4 8
213 Cintia S. Acosta F F 25-39 General 0:28:12 0:28:12 00:07:03  Min/Km 8.51 35 5 9
192 Micaela Monje F F 25-39 General 0:29:25 0:29:25 00:07:21  Min/Km 8.16 36 6 10
183 Brenda Medina F F 0 24 General 0:29:47 0:29:47 00:07:27  Min/Km 8.06 37 2 11
203 Juana Nievas F F Mas 40 General 0:30:51 0:30:51 00:07:43  Min/Km 7.78 38 4 12
202 Alicia Nievas F F Mas 40 General 0:32:56 0:32:56 00:08:14  Min/Km 7.29 39 5 13
210 Guillermina Lopez F F Mas 40 General 0:34:31 0:34:31 00:08:38  Min/Km 6.95 40 6 14
188 Carolina Rivero F F 25-39 General 0:34:58 0:34:58 00:08:45  Min/Km 6.86 41 7 15
191 M. Manuela Rojas F F 25-39 General 0:40:42 0:40:42 00:10:11  Min/Km 5.9 42 8 16

 

 

Leave a Reply

Tu dirección de correo electrónico no será publicada. Los campos necesarios están marcados *